Time;durP1;ratioP1;P1;durP2;ratioP2;P2;SDS_P1;SDS_P2;PMS_P1;PMS_P2;Temp;Humidity;BMP_temperature;BMP_pressure;BME280_temperature;BME280_humidity;BME280_pressure;Samples;Min_cycle;Max_cycle;Signal;HPM_P1;HPM_P2
2022/05/18 00:00:48;;;;;;;4.15;2.63;;;16.70;99.90;;;;;;5112013;28;20020;-84
2022/05/18 00:03:18;;;;;;;3.25;2.20;;;16.70;99.90;;;;;;5113203;28;20022;-84
2022/05/18 00:05:45;;;;;;;3.00;2.10;;;16.60;99.90;;;;;;5125633;28;20043;-83
2022/05/18 00:08:12;;;;;;;2.50;2.28;;;16.60;99.90;;;;;;5128273;28;20042;-83
2022/05/18 00:10:40;;;;;;;3.28;2.20;;;16.60;99.90;;;;;;5113428;28;20407;-84
2022/05/18 00:13:07;;;;;;;4.90;2.22;;;16.50;99.90;;;;;;5112131;28;20024;-84
2022/05/18 00:15:33;;;;;;;2.83;2.10;;;16.50;99.90;;;;;;5111392;28;20030;-84
2022/05/18 00:17:59;;;;;;;4.25;2.45;;;16.40;99.90;;;;;;5111739;28;20477;-83
2022/05/18 00:20:25;;;;;;;4.45;2.38;;;16.40;99.90;;;;;;5112393;28;20050;-81
2022/05/18 00:22:54;;;;;;;3.92;2.20;;;16.30;99.90;;;;;;5134600;28;20031;-83
2022/05/18 00:25:22;;;;;;;5.90;2.50;;;16.20;99.90;;;;;;5134692;28;20052;-84
2022/05/18 00:27:47;;;;;;;5.18;2.75;;;16.10;99.90;;;;;;5140229;28;20011;-83
2022/05/18 00:30:15;;;;;;;2.97;2.30;;;16.00;99.90;;;;;;5140554;28;20011;-81
2022/05/18 00:32:41;;;;;;;3.80;2.50;;;16.00;99.90;;;;;;5138022;28;20023;-84
2022/05/18 00:35:07;;;;;;;4.82;2.92;;;15.90;99.90;;;;;;5117077;28;20031;-84
2022/05/18 00:37:33;;;;;;;3.38;2.75;;;15.90;99.90;;;;;;5116179;28;20039;-84
2022/05/18 00:39:59;;;;;;;4.55;2.38;;;15.90;99.90;;;;;;5117188;28;20035;-84
2022/05/18 00:42:26;;;;;;;3.33;2.58;;;15.90;99.90;;;;;;5117191;28;20119;-81
2022/05/18 00:44:52;;;;;;;3.58;2.58;;;15.90;99.90;;;;;;5116475;28;20023;-84
2022/05/18 00:47:20;;;;;;;3.05;2.58;;;15.90;99.90;;;;;;5115428;28;20030;-84
2022/05/18 00:49:53;;;;;;;4.63;2.60;;;15.80;99.90;;;;;;5114712;28;20054;-84
2022/05/18 00:52:23;;;;;;;4.07;2.60;;;15.80;99.90;;;;;;5115064;28;20488;-84
2022/05/18 00:54:51;;;;;;;2.53;2.33;;;15.80;99.90;;;;;;5110263;28;20472;-85
2022/05/18 00:57:26;;;;;;;4.95;2.50;;;15.80;99.90;;;;;;5115114;28;20077;-85
2022/05/18 00:59:56;;;;;;;3.00;2.35;;;15.70;99.90;;;;;;5114596;28;20039;-84
2022/05/18 01:02:27;;;;;;;3.28;2.20;;;15.70;99.90;;;;;;5096552;28;20110;-85
2022/05/18 01:04:54;;;;;;;3.67;2.47;;;15.70;99.90;;;;;;5114609;28;20119;-84
2022/05/18 01:07:26;;;;;;;2.53;2.33;;;15.60;99.90;;;;;;5126518;28;20109;-85
2022/05/18 01:09:51;;;;;;;3.90;2.90;;;15.60;99.90;;;;;;5136120;28;20042;-83
2022/05/18 01:12:20;;;;;;;4.57;2.88;;;15.60;99.90;;;;;;5132160;28;20095;-83
2022/05/18 01:15:03;;;;;;;3.38;2.95;;;15.60;99.90;;;;;;5130956;28;20023;-83
2022/05/18 01:17:33;;;;;;;3.42;2.85;;;15.50;99.90;;;;;;5130769;28;20036;-82
2022/05/18 01:20:02;;;;;;;4.40;2.90;;;15.50;99.90;;;;;;5130333;28;20096;-84
2022/05/18 01:22:48;;;;;;;3.15;2.50;;;15.50;99.90;;;;;;5114563;28;20396;-81
2022/05/18 01:25:13;;;;;;;3.55;2.67;;;15.40;99.90;;;;;;5114688;28;20027;-84
2022/05/18 01:27:39;;;;;;;5.35;3.05;;;15.40;99.90;;;;;;5113531;28;20052;-84
2022/05/18 01:30:07;;;;;;;3.70;2.58;;;15.30;99.90;;;;;;5087579;28;20058;-85
2022/05/18 01:32:44;;;;;;;2.58;2.38;;;15.30;99.90;;;;;;5113314;28;20102;-85
2022/05/18 01:35:13;;;;;;;3.00;2.70;;;15.20;99.90;;;;;;5113773;28;20540;-84
2022/05/18 01:37:38;;;;;;;2.85;2.22;;;15.20;99.90;;;;;;5112446;28;20024;-84
2022/05/18 01:40:13;;;;;;;4.90;3.17;;;15.20;99.90;;;;;;5113896;28;20040;-84
2022/05/18 01:42:59;;;;;;;4.43;3.20;;;15.10;99.90;;;;;;5113213;28;20020;-84
2022/05/18 01:45:25;;;;;;;4.18;2.97;;;15.20;99.90;;;;;;5114098;28;20039;-84
2022/05/18 01:47:50;;;;;;;2.65;2.40;;;15.10;99.90;;;;;;5112622;28;20020;-84
2022/05/18 01:50:25;;;;;;;4.28;2.90;;;15.10;99.90;;;;;;5113662;28;20058;-83
2022/05/18 01:52:50;;;;;;;3.45;3.10;;;15.10;99.90;;;;;;5113217;28;20023;-84
2022/05/18 01:55:17;;;;;;;4.68;2.92;;;15.00;99.90;;;;;;5113206;28;20038;-85
2022/05/18 01:57:43;;;;;;;7.13;3.00;;;15.00;99.90;;;;;;5113297;28;20072;-84
2022/05/18 02:00:11;;;;;;;4.45;3.40;;;15.00;99.90;;;;;;5113183;28;20028;-83
2022/05/18 02:02:37;;;;;;;4.22;3.03;;;15.00;99.90;;;;;;5112182;28;20028;-82
2022/05/18 02:05:03;;;;;;;3.42;2.92;;;15.00;99.90;;;;;;5104961;28;20076;-84
2022/05/18 02:07:29;;;;;;;3.45;2.97;;;15.00;99.90;;;;;;5113648;28;20047;-82
2022/05/18 02:09:55;;;;;;;3.50;3.13;;;15.00;99.90;;;;;;5112849;28;20032;-83
2022/05/18 02:12:20;;;;;;;3.70;3.28;;;14.90;99.90;;;;;;5113884;28;20138;-83
2022/05/18 02:14:46;;;;;;;4.28;3.10;;;14.90;99.90;;;;;;5112816;28;20045;-86
2022/05/18 02:17:12;;;;;;;3.25;2.97;;;14.80;99.90;;;;;;5113506;28;20030;-85
2022/05/18 02:19:37;;;;;;;4.68;3.10;;;14.80;99.90;;;;;;5096467;28;20023;-84
2022/05/18 02:22:03;;;;;;;4.70;3.58;;;14.70;99.90;;;;;;5094840;28;20096;-84
2022/05/18 02:24:30;;;;;;;5.63;3.83;;;14.70;99.90;;;;;;5112482;28;20024;-85
2022/05/18 02:26:55;;;;;;;4.15;2.95;;;14.70;99.90;;;;;;5094250;28;20039;-85
2022/05/18 02:29:21;;;;;;;6.50;3.72;;;14.60;99.90;;;;;;5094905;28;20384;-85
2022/05/18 02:31:46;;;;;;;5.03;4.05;;;14.60;99.90;;;;;;5112400;28;20051;-85
2022/05/18 02:34:12;;;;;;;5.32;3.90;;;14.60;99.90;;;;;;5112972;28;20038;-85
2022/05/18 02:36:38;;;;;;;3.65;3.28;;;14.50;99.90;;;;;;5112125;28;20035;-85
2022/05/18 02:39:04;;;;;;;5.93;3.83;;;14.50;99.90;;;;;;5113107;28;20089;-87
2022/05/18 02:41:30;;;;;;;6.47;4.00;;;14.50;99.90;;;;;;5113585;28;20036;-80
2022/05/18 02:43:58;;;;;;;6.15;3.60;;;14.40;99.90;;;;;;5112553;28;20145;-84
2022/05/18 02:46:25;;;;;;;3.92;3.38;;;14.40;99.90;;;;;;5112711;28;20051;-84
2022/05/18 02:48:51;;;;;;;5.63;3.80;;;14.40;99.90;;;;;;5093203;28;20020;-86
2022/05/18 02:51:17;;;;;;;4.75;3.88;;;14.40;99.90;;;;;;5112543;28;20024;-83
2022/05/18 02:53:43;;;;;;;5.05;4.35;;;14.30;99.90;;;;;;5114529;28;20054;-82
2022/05/18 02:56:12;;;;;;;6.97;4.10;;;14.40;99.90;;;;;;5095305;28;20115;-83
2022/05/18 02:58:50;;;;;;;5.30;4.22;;;14.30;99.90;;;;;;5113268;28;20024;-82
2022/05/18 03:01:18;;;;;;;6.53;4.20;;;14.30;99.90;;;;;;5113340;28;20027;-82
2022/05/18 03:03:45;;;;;;;4.45;3.60;;;14.30;99.90;;;;;;5111341;28;20108;-83
2022/05/18 03:06:13;;;;;;;6.50;4.43;;;14.30;99.90;;;;;;5112429;28;20057;-82
2022/05/18 03:08:40;;;;;;;3.90;3.50;;;14.30;99.90;;;;;;5111725;28;20055;-84
2022/05/18 03:11:07;;;;;;;6.05;3.80;;;14.30;99.90;;;;;;5112184;28;20093;-82
2022/05/18 03:13:33;;;;;;;5.75;4.05;;;14.30;99.90;;;;;;5111955;28;20114;-80
2022/05/18 03:15:59;;;;;;;6.93;4.60;;;14.30;99.90;;;;;;5112106;28;20512;-86
2022/05/18 03:18:25;;;;;;;6.35;4.10;;;14.30;99.90;;;;;;5113629;28;20027;-86
2022/05/18 03:23:36;;;;;;;4.38;3.72;;;14.20;99.90;;;;;;5105239;28;20031;-82
2022/05/18 03:26:08;;;;;;;5.60;3.95;;;14.20;99.90;;;;;;5112476;28;20024;-84
2022/05/18 03:28:35;;;;;;;4.57;3.75;;;14.20;99.90;;;;;;5111715;28;20035;-82
2022/05/18 03:31:03;;;;;;;4.40;4.00;;;14.20;99.90;;;;;;5112045;28;20027;-86
2022/05/18 03:33:29;;;;;;;5.63;4.22;;;14.20;99.90;;;;;;5112092;28;20076;-86
2022/05/18 03:35:55;;;;;;;5.85;4.60;;;14.20;99.90;;;;;;5112989;28;20172;-86
2022/05/18 03:38:21;;;;;;;4.68;4.10;;;14.20;99.90;;;;;;5114179;28;20566;-85
2022/05/18 03:40:47;;;;;;;6.07;4.45;;;14.10;99.90;;;;;;5111891;28;20157;-82
2022/05/18 03:43:13;;;;;;;6.32;4.50;;;14.10;99.90;;;;;;5112123;28;20106;-85
2022/05/18 03:45:39;;;;;;;4.85;4.22;;;14.10;99.90;;;;;;5120561;28;20048;-84
2022/05/18 03:48:06;;;;;;;5.20;4.18;;;14.10;99.90;;;;;;5112978;28;20019;-86
2022/05/18 03:50:32;;;;;;;4.72;4.18;;;14.10;99.90;;;;;;5104578;28;20035;-83
2022/05/18 03:52:58;;;;;;;6.45;4.00;;;14.00;99.90;;;;;;5111557;28;20029;-85
2022/05/18 03:55:25;;;;;;;6.93;4.60;;;14.10;99.90;;;;;;5112370;28;20122;-84
2022/05/18 03:57:52;;;;;;;5.80;4.38;;;14.10;99.90;;;;;;5111397;28;20105;-83
2022/05/18 04:00:18;;;;;;;8.55;4.63;;;14.10;99.90;;;;;;5113400;28;20482;-82
2022/05/18 04:02:47;;;;;;;9.93;5.38;;;14.20;99.90;;;;;;5133894;28;20084;-80
2022/05/18 04:05:15;;;;;;;9.15;5.47;;;14.20;99.90;;;;;;5138508;28;20028;-81
2022/05/18 04:07:41;;;;;;;10.52;5.88;;;14.30;99.90;;;;;;5137831;28;20056;-80
2022/05/18 04:10:08;;;;;;;6.03;4.80;;;14.30;99.90;;;;;;5136913;28;20032;-83
2022/05/18 04:12:34;;;;;;;12.55;6.43;;;14.30;99.90;;;;;;5128710;28;20027;-86
2022/05/18 04:15:00;;;;;;;8.65;5.93;;;14.30;99.90;;;;;;5130186;28;20099;-86
2022/05/18 04:17:26;;;;;;;15.63;6.10;;;14.40;99.90;;;;;;5129025;28;20083;-87
2022/05/18 04:19:52;;;;;;;10.40;6.15;;;14.50;99.90;;;;;;5118227;28;20070;-85
2022/05/18 04:22:18;;;;;;;7.30;4.90;;;14.50;99.90;;;;;;5116010;28;20027;-83
2022/05/18 04:24:44;;;;;;;6.25;4.53;;;14.60;99.90;;;;;;5114922;28;20034;-83
2022/05/18 04:27:10;;;;;;;8.18;4.85;;;14.60;99.90;;;;;;5115773;28;20123;-86
2022/05/18 04:29:37;;;;;;;5.50;4.82;;;14.60;99.90;;;;;;5115939;28;20020;-86
2022/05/18 04:32:04;;;;;;;7.22;5.47;;;14.60;99.90;;;;;;5116959;28;20116;-86
2022/05/18 04:34:29;;;;;;;8.02;5.32;;;14.60;99.90;;;;;;5115994;28;20050;-86
2022/05/18 04:36:55;;;;;;;8.07;4.88;;;14.70;99.90;;;;;;5114907;28;20027;-84
2022/05/18 04:39:21;;;;;;;8.20;4.10;;;14.70;99.90;;;;;;5097018;28;20040;-85
2022/05/18 04:41:46;;;;;;;7.05;4.68;;;14.80;99.90;;;;;;5096660;28;20043;-86
2022/05/18 04:44:12;;;;;;;5.82;3.95;;;14.90;99.90;;;;;;5115439;28;20042;-87
2022/05/18 04:46:40;;;;;;;8.00;3.95;;;15.00;99.90;;;;;;5115602;28;20453;-82
2022/05/18 04:49:06;;;;;;;6.88;4.03;;;15.10;99.90;;;;;;5115337;28;20024;-85
2022/05/18 04:51:33;;;;;;;6.40;4.15;;;15.10;99.90;;;;;;5115607;28;20038;-87
2022/05/18 04:53:58;;;;;;;5.78;4.18;;;15.20;99.90;;;;;;5110647;28;20578;-86
2022/05/18 04:56:24;;;;;;;8.68;3.90;;;15.30;99.90;;;;;;5103598;28;20028;-86
2022/05/18 04:58:51;;;;;;;4.65;3.92;;;15.40;99.90;;;;;;5104262;28;20062;-86
2022/05/18 05:01:17;;;;;;;6.63;4.28;;;15.50;99.90;;;;;;5106189;28;20039;-85
2022/05/18 05:03:43;;;;;;;7.28;3.88;;;15.60;99.90;;;;;;5087143;28;20024;-78
2022/05/18 05:06:08;;;;;;;7.28;4.63;;;15.60;99.90;;;;;;5112565;28;20479;-83
2022/05/18 05:08:35;;;;;;;9.68;5.32;;;15.80;99.90;;;;;;5114299;28;20040;-80
2022/05/18 05:11:01;;;;;;;14.18;6.50;;;15.90;99.90;;;;;;5097834;28;20097;-78
2022/05/18 05:13:27;;;;;;;12.45;5.97;;;16.00;99.90;;;;;;5114270;28;20447;-75
2022/05/18 05:16:00;;;;;;;9.57;5.25;;;16.20;99.90;;;;;;5113110;28;20051;-75
2022/05/18 05:18:25;;;;;;;9.45;5.13;;;16.20;99.90;;;;;;5113716;28;20024;-77
2022/05/18 05:20:51;;;;;;;8.07;4.95;;;16.30;99.90;;;;;;5113193;28;20368;-77
2022/05/18 05:23:17;;;;;;;6.43;4.43;;;16.30;99.90;;;;;;5095731;28;20132;-75
2022/05/18 05:25:42;;;;;;;8.57;4.63;;;16.40;99.90;;;;;;5112696;28;20548;-76
2022/05/18 05:28:09;;;;;;;8.57;4.53;;;16.60;99.90;;;;;;5095383;28;20039;-76
2022/05/18 05:30:36;;;;;;;7.03;4.22;;;16.60;99.90;;;;;;5114230;28;20103;-73
2022/05/18 05:33:01;;;;;;;7.60;4.35;;;16.70;99.90;;;;;;5113210;28;20593;-76
2022/05/18 05:35:27;;;;;;;6.50;4.45;;;16.80;99.90;;;;;;5113154;28;20106;-77
2022/05/18 05:37:52;;;;;;;5.28;3.70;;;16.90;99.90;;;;;;5112435;28;20028;-75
2022/05/18 05:40:18;;;;;;;7.35;4.05;;;17.00;99.90;;;;;;5113406;28;20039;-76
2022/05/18 05:42:44;;;;;;;8.50;3.90;;;17.10;99.90;;;;;;5113157;28;20034;-83
2022/05/18 05:45:10;;;;;;;6.40;4.53;;;17.20;99.90;;;;;;5113109;28;20369;-79
2022/05/18 05:47:35;;;;;;;12.05;4.43;;;17.40;99.90;;;;;;5113646;28;20472;-76
2022/05/18 05:50:01;;;;;;;8.63;5.32;;;17.50;99.90;;;;;;5112735;28;20103;-76
2022/05/18 05:52:27;;;;;;;8.32;5.03;;;17.60;99.90;;;;;;5113209;28;20035;-75
2022/05/18 05:54:52;;;;;;;8.75;4.72;;;17.80;99.90;;;;;;5109173;28;20356;-77
2022/05/18 05:57:18;;;;;;;9.50;4.50;;;17.90;99.90;;;;;;5113527;28;20357;-73
2022/05/18 05:59:45;;;;;;;7.18;4.78;;;18.00;99.90;;;;;;5112671;28;20038;-72
2022/05/18 06:02:15;;;;;;;9.82;5.05;;;18.20;99.90;;;;;;5113030;28;20035;-74
2022/05/18 06:04:42;;;;;;;;;;;18.20;99.90;;;;;;5113007;28;20388;-74
2022/05/18 06:07:08;;;;;;;7.22;4.13;;;18.40;99.90;;;;;;5112581;28;19955;-73
2022/05/18 06:09:34;;;;;;;9.02;4.20;;;18.40;99.90;;;;;;5113221;28;20104;-73
2022/05/18 06:12:00;;;;;;;13.02;4.50;;;18.60;99.90;;;;;;5112355;28;20134;-75
2022/05/18 06:14:26;;;;;;;10.73;4.60;;;18.80;99.90;;;;;;5112441;28;20023;-74
2022/05/18 06:16:52;;;;;;;6.60;4.50;;;18.80;99.90;;;;;;5112021;28;20031;-75
2022/05/18 06:19:18;;;;;;;6.38;4.22;;;18.90;99.90;;;;;;5112436;28;20095;-72
2022/05/18 06:21:46;;;;;;;6.43;4.07;;;19.10;99.90;;;;;;5112503;28;20049;-71
2022/05/18 06:24:12;;;;;;;9.57;4.38;;;19.10;99.90;;;;;;5111714;28;20020;-74
2022/05/18 06:26:38;;;;;;;7.43;4.47;;;19.20;99.90;;;;;;5112410;28;20044;-74
2022/05/18 06:29:05;;;;;;;5.90;3.75;;;19.40;99.90;;;;;;5111691;28;20104;-75
2022/05/18 06:31:31;;;;;;;6.68;4.35;;;19.50;99.90;;;;;;5112383;28;20434;-77
2022/05/18 06:33:57;;;;;;;11.25;4.50;;;19.60;99.90;;;;;;5111882;28;20077;-78
2022/05/18 06:36:23;;;;;;;11.35;4.90;;;19.70;99.90;;;;;;5112805;28;20366;-80
2022/05/18 06:38:48;;;;;;;9.85;4.10;;;19.90;99.90;;;;;;5110738;28;20034;-80
2022/05/18 06:41:23;;;;;;;11.57;5.28;;;19.90;99.90;;;;;;5113065;28;20086;-78
2022/05/18 06:43:54;;;;;;;9.57;5.25;;;20.10;99.90;;;;;;5111622;28;20055;-80
2022/05/18 06:46:21;;;;;;;10.35;4.93;;;20.20;99.90;;;;;;5112774;28;20391;-78
2022/05/18 06:48:48;;;;;;;6.57;4.25;;;20.30;99.90;;;;;;5112176;28;20031;-79
2022/05/18 06:51:21;;;;;;;8.50;3.85;;;20.40;99.90;;;;;;5109224;28;20054;-80
2022/05/18 06:53:51;;;;;;;4.85;4.00;;;20.50;99.90;;;;;;5111864;28;20027;-77
2022/05/18 06:56:21;;;;;;;7.20;3.85;;;20.60;99.90;;;;;;5112251;28;20487;-76
2022/05/18 06:58:48;;;;;;;9.88;4.55;;;20.70;99.90;;;;;;5115163;28;20024;-82
2022/05/18 07:01:14;;;;;;;13.75;5.05;;;20.80;99.90;;;;;;5118002;28;20492;-79
2022/05/18 07:03:39;;;;;;;10.68;4.63;;;20.90;99.90;;;;;;5111742;28;20055;-80
2022/05/18 07:06:06;;;;;;;5.93;4.45;;;21.00;99.90;;;;;;5114741;28;20059;-79
2022/05/18 07:08:34;;;;;;;6.85;4.35;;;21.10;99.90;;;;;;5113377;28;20024;-79
2022/05/18 07:11:00;;;;;;;10.00;4.25;;;21.20;99.90;;;;;;5112695;28;20032;-78
2022/05/18 07:13:25;;;;;;;8.48;3.53;;;21.40;99.90;;;;;;5111317;28;20129;-78
2022/05/18 07:15:51;;;;;;;6.75;2.75;;;21.50;99.50;;;;;;5096277;28;20027;-80
2022/05/18 07:18:17;;;;;;;4.68;2.50;;;21.50;98.70;;;;;;5118418;28;20035;-83
2022/05/18 07:20:42;;;;;;;5.13;2.83;;;21.60;98.40;;;;;;5117407;28;20032;-82
2022/05/18 07:23:08;;;;;;;5.65;3.20;;;21.80;97.40;;;;;;5115060;28;20246;-80
2022/05/18 07:25:35;;;;;;;15.23;4.97;;;22.00;97.90;;;;;;5115572;28;20023;-81
2022/05/18 07:28:01;;;;;;;7.53;3.75;;;22.20;98.50;;;;;;5111520;28;20034;-79
2022/05/18 07:30:27;;;;;;;9.20;4.50;;;22.30;98.40;;;;;;5111704;28;20028;-79
2022/05/18 07:32:53;;;;;;;9.82;3.70;;;22.50;97.80;;;;;;5111232;28;20076;-77
2022/05/18 07:35:18;;;;;;;11.00;3.83;;;22.60;97.20;;;;;;5111870;28;20036;-76
2022/05/18 07:37:44;;;;;;;9.80;3.00;;;22.70;96.30;;;;;;5115118;28;20038;-76
2022/05/18 07:40:10;;;;;;;8.07;4.00;;;22.70;95.90;;;;;;5114009;28;20253;-77
2022/05/18 07:42:38;;;;;;;5.97;2.90;;;22.70;96.10;;;;;;5116289;28;20032;-74
2022/05/18 07:45:05;;;;;;;6.55;2.85;;;22.90;95.20;;;;;;5113955;28;20115;-77
2022/05/18 07:47:32;;;;;;;8.40;2.30;;;22.90;95.00;;;;;;5106860;28;20032;-76
2022/05/18 07:49:58;;;;;;;6.22;3.22;;;23.10;94.70;;;;;;5113537;28;20073;-76
2022/05/18 07:52:24;;;;;;;4.93;2.83;;;23.20;94.50;;;;;;5108389;28;20064;-77
2022/05/18 07:54:51;;;;;;;10.27;2.95;;;23.30;94.30;;;;;;5112383;28;20112;-75
2022/05/18 07:57:17;;;;;;;3.97;2.78;;;23.50;92.30;;;;;;5113670;28;20429;-76
2022/05/18 07:59:43;;;;;;;3.05;2.47;;;23.60;92.00;;;;;;5095823;28;20023;-76
2022/05/18 08:02:09;;;;;;;4.97;2.50;;;23.70;91.60;;;;;;5104551;28;20880;-77
2022/05/18 08:04:34;;;;;;;4.00;2.65;;;23.80;91.70;;;;;;5115806;28;20020;-77
2022/05/18 08:07:00;;;;;;;3.55;2.58;;;23.90;91.10;;;;;;5113592;28;20049;-76
2022/05/18 08:09:26;;;;;;;12.10;3.20;;;24.10;91.10;;;;;;5114470;28;20472;-77
2022/05/18 08:17:22;;;;;;;6.93;2.97;;;24.40;87.00;;;;;;5116824;28;20053;-78
2022/05/18 08:19:48;;;;;;;6.05;2.60;;;24.50;87.00;;;;;;5118598;28;20384;-79
2022/05/18 08:22:14;;;;;;;3.75;2.67;;;24.50;84.80;;;;;;5108038;28;20034;-78
2022/05/18 08:24:40;;;;;;;5.97;2.53;;;24.60;84.90;;;;;;5109754;28;20039;-78
2022/05/18 08:27:10;;;;;;;3.33;2.10;;;24.60;84.40;;;;;;5111249;28;20063;-77
2022/05/18 08:29:36;;;;;;;;;;;24.70;83.30;;;;;;5113581;28;20028;-76
2022/05/18 08:32:03;;;;;;;5.47;3.00;;;24.90;82.80;;;;;;5111031;28;19990;-77
2022/05/18 08:34:29;;;;;;;5.65;3.20;;;25.00;82.30;;;;;;5099468;28;20354;-78
2022/05/18 08:36:54;;;;;;;6.30;2.80;;;25.10;81.80;;;;;;5114203;28;20030;-76
2022/05/18 08:39:20;;;;;;;3.22;2.42;;;25.20;80.90;;;;;;5118632;28;20036;-79
2022/05/18 08:41:47;;;;;;;4.88;2.60;;;25.20;80.80;;;;;;5120603;28;20064;-77
2022/05/18 08:44:31;;;;;;;4.75;2.42;;;25.20;80.10;;;;;;5118507;28;20197;-79
2022/05/18 08:47:35;;;;;;;4.65;2.80;;;25.30;79.50;;;;;;5112111;28;20039;-78
2022/05/18 08:50:10;;;;;;;4.85;2.88;;;25.30;78.40;;;;;;5070780;28;20044;-78
2022/05/18 08:52:52;;;;;;;4.72;2.65;;;25.40;78.30;;;;;;5117795;28;20032;-78
2022/05/18 08:55:45;;;;;;;5.57;2.60;;;25.50;78.40;;;;;;5111212;28;20055;-79
2022/05/18 08:58:41;;;;;;;5.60;2.50;;;25.60;76.70;;;;;;5127831;28;20349;-77
2022/05/18 09:01:14;;;;;;;5.57;2.72;;;25.70;77.00;;;;;;5120059;28;20044;-77
2022/05/18 09:04:01;;;;;;;4.53;2.70;;;25.70;77.10;;;;;;5128134;28;20039;-77
2022/05/18 09:06:36;;;;;;;7.65;3.22;;;25.80;76.40;;;;;;5120381;28;20066;-78
2022/05/18 09:11:54;;;;;;;6.13;3.05;;;25.80;76.30;;;;;;5108448;28;20073;-75
2022/05/18 09:14:22;;;;;;;30.55;3.50;;;25.80;75.90;;;;;;5105788;28;20027;-77
2022/05/18 09:17:14;;;;;;;11.60;3.22;;;25.90;75.60;;;;;;5106232;28;20784;-77
2022/05/18 09:19:45;;;;;;;9.30;2.65;;;26.00;74.80;;;;;;5107129;28;20031;-77
2022/05/18 09:22:18;;;;;;;6.90;3.25;;;26.20;73.00;;;;;;5112057;28;20028;-77
2022/05/18 09:25:22;;;;;;;5.97;3.05;;;26.20;72.50;;;;;;5113141;28;20043;-78
2022/05/18 09:28:18;;;;;;;6.30;2.60;;;26.30;71.60;;;;;;5107529;28;20051;-78
2022/05/18 09:30:53;;;;;;;7.68;2.70;;;26.40;71.90;;;;;;5112504;28;20444;-77
2022/05/18 09:33:34;;;;;;;5.75;2.22;;;26.50;70.00;;;;;;5112281;28;20032;-77
2022/05/18 09:36:33;;;;;;;6.22;2.13;;;26.50;68.90;;;;;;5111242;28;20436;-77
2022/05/18 09:39:13;;;;;;;6.03;2.47;;;26.60;68.80;;;;;;5112105;28;20050;-77
2022/05/18 09:41:48;;;;;;;8.75;3.00;;;26.60;68.90;;;;;;5091226;28;20056;-78
2022/05/18 09:44:34;;;;;;;5.00;1.90;;;26.80;67.20;;;;;;5090854;28;20115;-78
2022/05/18 09:47:01;;;;;;;6.43;2.17;;;26.80;66.00;;;;;;5090949;28;20042;-78
2022/05/18 09:49:37;;;;;;;12.45;2.38;;;27.00;66.10;;;;;;5091977;28;20028;-79
2022/05/18 09:52:05;;;;;;;3.53;2.05;;;27.20;63.30;;;;;;5091029;28;20095;-77
2022/05/18 09:54:33;;;;;;;8.52;2.53;;;27.40;63.30;;;;;;5085977;28;20028;-78
2022/05/18 09:57:13;;;;;;;3.60;2.58;;;27.40;64.40;;;;;;5090965;28;20055;-76
2022/05/18 09:59:55;;;;;;;5.07;2.60;;;27.50;63.90;;;;;;5085344;28;20025;-79
2022/05/18 10:08:14;;;;;;;9.23;2.95;;;27.70;63.10;;;;;;5083032;28;20397;-77
2022/05/18 10:10:41;;;;;;;14.70;2.90;;;27.80;61.90;;;;;;5090952;28;20032;-78
2022/05/18 10:13:14;;;;;;;3.88;2.22;;;27.70;62.40;;;;;;5091268;28;20028;-77
2022/05/18 10:15:48;;;;;;;3.75;2.20;;;27.80;62.30;;;;;;5092118;28;20704;-78
2022/05/18 10:18:59;;;;;;;6.30;2.30;;;27.90;61.20;;;;;;5091829;28;20016;-78
2022/05/18 10:21:38;;;;;;;3.17;1.85;;;28.10;60.10;;;;;;5087833;28;20044;-77
2022/05/18 10:24:27;;;;;;;6.15;2.08;;;28.10;59.60;;;;;;5090795;28;20637;-77
2022/05/18 10:27:11;;;;;;;5.13;2.40;;;28.20;60.30;;;;;;5091518;28;20036;-76
2022/05/18 10:29:37;;;;;;;8.00;2.25;;;;;;;;;;5091354;28;20491;-76
2022/05/18 10:32:05;;;;;;;2.38;1.90;;;;;;;;;;5090621;28;20492;-78
2022/05/18 10:34:33;;;;;;;3.47;2.08;;;;;;;;;;5091074;28;20497;-79
2022/05/18 10:37:01;;;;;;;3.28;1.88;;;;;;;;;;5090790;28;20024;-75
2022/05/18 10:39:36;;;;;;;4.68;1.98;;;;;;;;;;5091203;28;20020;-76
2022/05/18 10:42:08;;;;;;;4.03;1.80;;;;;;;;;;5109562;28;20043;-76
2022/05/18 10:44:35;;;;;;;5.25;2.08;;;;;;;;;;5110956;28;20095;-77
2022/05/18 10:47:18;;;;;;;3.13;1.77;;;;;;;;;;5110328;28;20023;-75
2022/05/18 10:49:45;;;;;;;5.57;2.20;;;;;;;;;;5105418;28;20047;-77
2022/05/18 10:52:14;;;;;;;1.73;1.50;;;;;;;;;;5110407;28;20047;-77
2022/05/18 10:55:01;;;;;;;3.60;2.05;;;29.10;54.80;;;;;;5111029;28;20038;-76
2022/05/18 10:57:35;;;;;;;2.88;1.60;;;29.10;55.60;;;;;;5111785;28;20035;-77
2022/05/18 11:00:06;;;;;;;3.78;1.88;;;29.30;55.50;;;;;;5110811;28;20031;-76
2022/05/18 11:02:57;;;;;;;2.67;1.90;;;29.30;53.70;;;;;;5100212;28;20020;-77
2022/05/18 11:05:41;;;;;;;2.40;2.20;;;29.30;54.30;;;;;;5090234;28;20028;-75
2022/05/18 11:08:14;;;;;;;6.97;2.67;;;29.20;54.40;;;;;;5090393;28;20028;-75
2022/05/18 11:10:45;;;;;;;5.45;2.13;;;29.20;54.90;;;;;;5091268;28;20041;-75
2022/05/18 11:13:22;;;;;;;2.92;2.10;;;29.20;55.60;;;;;;5072054;28;20604;-76
2022/05/18 11:16:07;;;;;;;2.67;2.28;;;29.20;55.70;;;;;;5091173;28;20020;-76
2022/05/18 11:18:35;;;;;;;2.90;1.92;;;29.20;55.40;;;;;;5091149;28;20117;-75
2022/05/18 11:21:27;;;;;;;4.65;2.00;;;29.20;54.30;;;;;;5090689;28;20020;-73
2022/05/18 11:24:15;;;;;;;3.17;2.30;;;29.30;53.80;;;;;;5090778;28;20362;-75
2022/05/18 11:26:49;;;;;;;4.60;2.20;;;29.40;54.70;;;;;;5090705;28;20453;-75
2022/05/18 11:29:45;;;;;;;6.78;2.10;;;29.30;55.00;;;;;;5090338;28;20484;-76
2022/05/18 11:32:39;;;;;;;4.53;2.05;;;29.30;54.60;;;;;;5089862;28;20366;-75
2022/05/18 11:35:28;;;;;;;3.17;1.70;;;29.30;52.60;;;;;;5089508;28;20024;-73
2022/05/18 11:38:02;;;;;;;4.95;2.22;;;29.40;52.60;;;;;;5091360;28;20032;-74
2022/05/18 11:40:37;;;;;;;3.95;2.20;;;29.30;53.30;;;;;;5100170;28;20115;-74
2022/05/18 11:43:30;;;;;;;6.57;2.10;;;29.30;54.10;;;;;;5110522;28;20028;-77
2022/05/18 11:46:26;;;;;;;2.30;1.98;;;29.40;55.30;;;;;;5101224;28;20028;-75
2022/05/18 11:49:10;;;;;;;9.80;2.55;;;29.50;54.50;;;;;;5101893;28;20024;-74
2022/05/18 11:51:39;;;;;;;2.90;2.15;;;29.70;54.20;;;;;;5090374;28;20073;-74
2022/05/18 11:54:16;;;;;;;5.88;2.72;;;29.90;51.90;;;;;;5097252;28;20024;-76
2022/05/18 11:57:01;;;;;;;6.07;2.33;;;29.90;53.00;;;;;;5090517;28;20020;-74
2022/05/18 12:00:07;;;;;;;8.68;2.30;;;29.90;52.60;;;;;;5089768;28;20031;-74
2022/05/18 12:02:54;;;;;;;10.52;2.00;;;30.10;52.90;;;;;;5090525;28;20032;-74
2022/05/18 12:05:57;;;;;;;2.55;2.22;;;30.30;52.70;;;;;;5093081;28;20388;-74
2022/05/18 12:08:46;;;;;;;2.92;1.80;;;30.20;52.30;;;;;;5093520;28;20028;-74
2022/05/18 12:11:55;;;;;;;3.22;2.03;;;30.30;52.60;;;;;;5087200;28;20096;-75
2022/05/18 12:15:10;;;;;;;2.60;2.35;;;30.40;52.70;;;;;;5101496;28;20032;-74
2022/05/18 12:17:50;;;;;;;3.95;2.35;;;30.30;52.40;;;;;;4988218;28;20031;-74
2022/05/18 12:20:40;;;;;;;7.27;2.30;;;30.30;52.90;;;;;;5077357;28;20115;-74
2022/05/18 12:23:09;;;;;;;5.90;2.30;;;30.30;53.30;;;;;;5093498;28;20019;-75
2022/05/18 12:25:36;;;;;;;3.60;1.85;;;30.30;52.40;;;;;;5093950;28;20059;-74
2022/05/18 12:28:04;;;;;;;3.10;2.30;;;30.30;52.90;;;;;;5094131;28;20382;-74
2022/05/18 12:30:34;;;;;;;3.42;1.88;;;30.30;53.00;;;;;;5093627;28;20028;-74
2022/05/18 12:33:03;;;;;;;3.70;2.10;;;30.20;52.00;;;;;;5094280;28;20476;-75
2022/05/18 12:35:56;;;;;;;4.40;2.22;;;30.10;53.00;;;;;;5093321;28;20082;-75
2022/05/18 12:38:27;;;;;;;3.13;2.20;;;30.40;52.00;;;;;;5093521;28;20372;-75
2022/05/18 12:40:58;;;;;;;2.75;1.95;;;30.40;51.80;;;;;;5093650;28;20072;-75
2022/05/18 12:43:33;;;;;;;4.65;2.10;;;;;;;;;;5093318;28;20039;-75
2022/05/18 12:46:32;;;;;;;5.88;2.35;;;30.90;50.10;;;;;;5094216;28;20676;-74
2022/05/18 12:49:08;;;;;;;4.30;1.98;;;30.90;51.50;;;;;;5064755;28;20035;-75
2022/05/18 12:51:45;;;;;;;4.85;2.05;;;31.10;51.70;;;;;;5094991;28;20028;-74
2022/05/18 12:54:12;;;;;;;2.53;1.80;;;31.20;51.20;;;;;;5112025;28;20023;-74
2022/05/18 12:56:38;;;;;;;10.43;2.08;;;31.20;51.20;;;;;;5113722;28;20031;-74
2022/05/18 12:59:11;;;;;;;2.92;1.75;;;31.10;50.20;;;;;;5098611;28;20020;-74
2022/05/18 13:01:40;;;;;;;6.75;2.25;;;31.20;51.00;;;;;;5114784;28;20027;-74
2022/05/18 13:04:08;;;;;;;3.85;1.88;;;31.00;51.30;;;;;;5101994;28;20093;-72
2022/05/18 13:06:45;;;;;;;2.95;2.28;;;31.00;51.80;;;;;;5093246;28;20098;-74
2022/05/18 13:09:23;;;;;;;2.58;1.90;;;31.10;51.10;;;;;;5092347;28;20461;-74
2022/05/18 13:12:23;;;;;;;2.13;1.83;;;31.20;51.40;;;;;;5113706;28;20081;-76
2022/05/18 13:15:03;;;;;;;2.05;1.80;;;31.30;50.00;;;;;;5101390;28;20032;-76
2022/05/18 13:17:49;;;;;;;2.47;2.17;;;31.30;49.80;;;;;;5074555;28;20047;-75
2022/05/18 13:20:29;;;;;;;10.25;2.60;;;31.30;50.70;;;;;;5092031;28;20024;-75
2022/05/18 13:23:19;;;;;;;3.30;1.70;;;31.30;51.10;;;;;;5095946;28;20475;-75
2022/05/18 13:25:51;;;;;;;3.97;1.85;;;31.30;50.90;;;;;;5092926;28;20499;-74
2022/05/18 13:28:18;;;;;;;7.35;2.13;;;31.30;49.80;;;;;;5095279;28;20042;-75